createdAt,value
2022-12-31T00:02:27.073Z,99789.97
2022-12-31T00:04:57.126Z,99787.22
2022-12-31T00:08:08.818Z,99784.25
2022-12-31T00:10:54.928Z,99791.16
2022-12-31T00:17:29.751Z,99811.81
2022-12-31T00:19:56.694Z,99803.94
2022-12-31T00:22:30.477Z,99810.00
2022-12-31T00:25:00.467Z,99815.19
2022-12-31T00:27:56.211Z,99822.31
2022-12-31T00:30:26.287Z,99836.28
2022-12-31T00:32:55.995Z,99825.38
2022-12-31T00:35:22.798Z,99821.75
2022-12-31T00:40:58.072Z,99827.06
2022-12-31T00:44:32.882Z,99828.53
2022-12-31T00:47:52.326Z,99822.06
2022-12-31T00:50:41.329Z,99823.84
2022-12-31T01:01:10.613Z,99833.97
2022-12-31T01:11:00.318Z,99858.13
2022-12-31T01:24:37.098Z,99877.31
2022-12-31T01:27:18.933Z,99867.53
2022-12-31T02:10:10.329Z,99902.72
2022-12-31T02:21:29.519Z,99898.19
2022-12-31T02:24:18.425Z,99906.78
2022-12-31T02:27:11.251Z,99900.41
2022-12-31T02:30:02.331Z,99903.06
2022-12-31T02:33:09.158Z,99900.91
2022-12-31T02:36:12.471Z,99891.88
2022-12-31T02:38:45.282Z,99894.44
2022-12-31T02:41:48.499Z,99888.09
2022-12-31T02:44:42.176Z,99881.28
2022-12-31T02:47:09.372Z,99877.03
2022-12-31T02:49:59.344Z,99876.06
2022-12-31T02:57:21.548Z,99877.44
2022-12-31T03:00:45.843Z,99888.66
2022-12-31T03:03:49.880Z,99889.94
2022-12-31T03:06:30.480Z,99876.69
2022-12-31T03:17:45.353Z,99875.53
2022-12-31T03:20:58.841Z,99871.56
2022-12-31T03:24:19.058Z,99868.06
2022-12-31T03:34:10.952Z,99872.34
2022-12-31T03:36:43.179Z,99871.72
2022-12-31T03:40:16.262Z,99876.47
2022-12-31T03:42:58.167Z,99868.19
2022-12-31T03:45:43.404Z,99874.66
2022-12-31T03:48:35.536Z,99866.69
2022-12-31T03:51:52.148Z,99861.31
2022-12-31T03:54:53.811Z,99851.75
2022-12-31T03:58:09.328Z,99843.19
2022-12-31T04:00:52.181Z,99849.19
2022-12-31T04:06:31.036Z,99852.25
2022-12-31T04:09:06.010Z,99854.59
2022-12-31T04:11:49.403Z,99849.28
2022-12-31T04:15:16.314Z,99850.09
2022-12-31T04:19:01.934Z,99856.28
2022-12-31T04:22:18.649Z,99863.06
2022-12-31T04:36:27.588Z,99860.31
2022-12-31T05:32:28.419Z,99814.75
2022-12-31T05:34:55.402Z,99821.16
2022-12-31T05:37:22.542Z,99822.72
2022-12-31T05:39:49.548Z,99827.22
2022-12-31T05:42:16.331Z,99829.88
2022-12-31T05:44:43.147Z,99816.34
2022-12-31T05:47:09.933Z,99828.66
2022-12-31T05:49:36.687Z,99822.03
2022-12-31T05:52:06.916Z,99815.88
2022-12-31T05:54:33.882Z,99810.56
2022-12-31T05:57:00.935Z,99820.09
2022-12-31T05:59:30.464Z,99833.16
2022-12-31T06:01:59.836Z,99822.63
2022-12-31T06:04:27.712Z,99823.72
2022-12-31T06:06:54.509Z,99807.06
2022-12-31T06:09:21.317Z,99798.09
2022-12-31T06:11:48.224Z,99768.31
2022-12-31T06:14:40.810Z,99764.56
2022-12-31T06:17:13.170Z,99751.38
2022-12-31T06:23:06.573Z,99755.16
2022-12-31T06:25:35.474Z,99749.94
2022-12-31T06:28:04.475Z,99731.44
2022-12-31T06:30:31.284Z,99746.53
2022-12-31T06:37:00.646Z,99767.72
2022-12-31T06:46:48.317Z,99713.94
2022-12-31T06:49:15.997Z,99719.63
2022-12-31T06:51:42.812Z,99735.09
2022-12-31T06:54:09.502Z,99748.59
2022-12-31T06:56:36.397Z,99731.91
2022-12-31T06:59:03.837Z,99727.31
2022-12-31T07:01:36.826Z,99725.16
2022-12-31T07:04:25.777Z,99721.50
2022-12-31T07:07:04.747Z,99734.56
2022-12-31T07:09:38.599Z,99729.84
2022-12-31T07:12:14.203Z,99724.00
2022-12-31T07:14:49.754Z,99718.34
2022-12-31T07:17:28.689Z,99717.81
2022-12-31T07:20:13.221Z,99706.81
2022-12-31T07:22:40.722Z,99709.09
2022-12-31T07:25:13.149Z,99710.50
2022-12-31T07:27:52.663Z,99716.84
2022-12-31T07:30:25.392Z,99714.63
2022-12-31T07:33:02.871Z,99711.47
2022-12-31T07:36:01.422Z,99719.78
2022-12-31T07:38:46.164Z,99719.66
2022-12-31T07:41:18.165Z,99723.88
2022-12-31T07:43:58.649Z,99721.00
2022-12-31T07:46:53.084Z,99724.81
2022-12-31T07:49:20.180Z,99717.75
2022-12-31T07:51:53.245Z,99725.16
2022-12-31T07:56:27.394Z,99747.09
2022-12-31T07:59:25.100Z,99754.84
2022-12-31T08:02:31.755Z,99756.97
2022-12-31T08:05:37.209Z,99764.72
2022-12-31T08:08:36.265Z,99765.88
2022-12-31T08:11:14.924Z,99754.06
2022-12-31T08:13:42.684Z,99753.94
2022-12-31T08:16:26.078Z,99745.41
2022-12-31T08:19:14.728Z,99783.28
2022-12-31T08:22:00.095Z,99757.41
2022-12-31T08:25:04.830Z,99765.69
2022-12-31T08:27:53.208Z,99764.81
2022-12-31T08:30:38.449Z,99743.50
2022-12-31T08:33:18.491Z,99740.91
2022-12-31T08:36:05.108Z,99767.16
2022-12-31T08:39:12.205Z,99754.88
2022-12-31T08:41:53.634Z,99748.44
2022-12-31T08:44:39.147Z,99769.91
2022-12-31T08:47:23.037Z,99777.78
2022-12-31T08:52:40.902Z,99763.75
2022-12-31T08:55:08.473Z,99774.97
2022-12-31T08:57:42.774Z,99772.44
2022-12-31T09:00:18.172Z,99748.50
2022-12-31T09:03:00.892Z,99760.88
2022-12-31T09:05:54.267Z,99757.66
2022-12-31T09:08:48.879Z,99746.53
2022-12-31T09:11:37.297Z,99764.38
2022-12-31T09:14:34.830Z,99794.19
2022-12-31T09:17:07.794Z,99768.69
2022-12-31T09:19:37.034Z,99760.81
2022-12-31T09:22:26.650Z,99763.59
2022-12-31T09:24:55.312Z,99770.78
2022-12-31T09:28:05.520Z,99787.06
2022-12-31T09:30:51.691Z,99788.63
2022-12-31T09:33:59.918Z,99777.97
2022-12-31T09:36:46.596Z,99780.47
2022-12-31T09:39:36.791Z,99781.06
2022-12-31T09:42:31.292Z,99770.25
2022-12-31T09:45:31.054Z,99775.28
2022-12-31T09:48:16.463Z,99774.03
2022-12-31T09:51:38.306Z,99782.47
2022-12-31T09:54:34.151Z,99796.25
2022-12-31T09:57:24.709Z,99789.66
2022-12-31T10:00:48.729Z,99795.44
2022-12-31T10:03:22.313Z,99814.25
2022-12-31T10:05:56.598Z,99799.94
2022-12-31T10:08:32.618Z,99804.41
2022-12-31T10:11:05.557Z,99803.44
2022-12-31T10:13:54.933Z,99798.09
2022-12-31T10:16:28.740Z,99809.88
2022-12-31T10:19:21.149Z,99803.13
2022-12-31T10:22:26.939Z,99812.13
2022-12-31T10:25:18.474Z,99827.97
2022-12-31T10:28:09.972Z,99823.91
2022-12-31T10:30:39.692Z,99822.75
2022-12-31T10:33:35.573Z,99832.72
2022-12-31T10:36:14.404Z,99827.63
2022-12-31T10:39:15.393Z,99839.16
2022-12-31T10:42:12.350Z,99841.13
2022-12-31T10:45:09.156Z,99831.84
2022-12-31T10:48:03.954Z,99827.25
2022-12-31T10:50:39.671Z,99832.16
2022-12-31T10:53:18.431Z,99834.97
2022-12-31T10:56:12.475Z,99845.50
2022-12-31T10:59:02.157Z,99843.28
2022-12-31T11:01:49.027Z,99848.50
2022-12-31T11:04:34.734Z,99854.09
2022-12-31T11:07:40.759Z,99862.53
2022-12-31T11:10:48.974Z,99864.03
2022-12-31T11:13:35.453Z,99868.38
2022-12-31T11:16:07.716Z,99873.00
2022-12-31T11:19:01.159Z,99868.81
2022-12-31T11:22:01.963Z,99875.81
2022-12-31T11:24:43.680Z,99865.00
2022-12-31T11:31:59.292Z,99860.22
2022-12-31T11:34:41.132Z,99856.88
2022-12-31T11:37:47.524Z,99845.94
2022-12-31T11:40:14.413Z,99849.19
2022-12-31T11:42:52.456Z,99835.28
2022-12-31T11:45:51.943Z,99824.47
2022-12-31T11:48:35.822Z,99830.13
2022-12-31T11:51:21.477Z,99821.97
2022-12-31T11:54:17.995Z,99823.81
2022-12-31T11:56:50.598Z,99826.75
2022-12-31T11:59:19.839Z,99813.00
2022-12-31T12:02:01.643Z,99815.50
2022-12-31T12:04:28.403Z,99813.81
2022-12-31T12:06:55.498Z,99813.97
2022-12-31T12:09:29.124Z,99820.47
2022-12-31T12:12:05.186Z,99817.06
2022-12-31T12:14:41.257Z,99804.84
2022-12-31T12:17:19.232Z,99813.28
2022-12-31T12:19:53.539Z,99806.28
2022-12-31T12:22:25.675Z,99810.31
2022-12-31T12:24:58.520Z,99811.88
2022-12-31T12:27:29.481Z,99811.19
2022-12-31T12:29:56.538Z,99801.91
2022-12-31T12:32:29.014Z,99794.03
2022-12-31T12:34:58.078Z,99810.50
2022-12-31T12:37:26.247Z,99810.19
2022-12-31T12:40:03.520Z,99788.81
2022-12-31T12:42:30.638Z,99786.56
2022-12-31T12:45:02.538Z,99813.16
2022-12-31T12:47:38.164Z,99773.31
2022-12-31T12:50:35.470Z,99794.56
2022-12-31T12:53:15.779Z,99790.03
2022-12-31T12:56:06.516Z,99793.56
2022-12-31T12:58:42.353Z,99786.47
2022-12-31T13:01:36.852Z,99787.66
2022-12-31T13:04:37.130Z,99786.91
2022-12-31T13:07:19.395Z,99792.41
2022-12-31T13:10:16.017Z,99764.47
2022-12-31T13:13:22.722Z,99775.16
2022-12-31T13:15:52.526Z,99776.59
2022-12-31T13:18:58.351Z,99778.09
2022-12-31T13:21:43.905Z,99788.34
2022-12-31T13:24:22.518Z,99787.66
2022-12-31T13:27:01.013Z,99805.00
2022-12-31T13:29:29.571Z,99811.91
2022-12-31T13:32:07.874Z,99830.06
2022-12-31T13:34:37.935Z,99796.25
2022-12-31T13:37:23.018Z,99820.97
2022-12-31T13:40:00.221Z,99812.00
2022-12-31T13:42:44.237Z,99799.84
2022-12-31T13:45:13.979Z,99833.63
2022-12-31T13:47:57.409Z,99851.81
2022-12-31T13:50:41.146Z,99814.16
2022-12-31T13:53:22.212Z,99826.03
2022-12-31T13:56:28.877Z,99826.97
2022-12-31T13:59:05.039Z,99833.38
2022-12-31T14:01:39.727Z,99867.72
2022-12-31T14:04:17.360Z,99874.31
2022-12-31T14:06:49.777Z,99868.13
2022-12-31T14:09:24.056Z,99863.34
2022-12-31T14:12:17.966Z,99878.59
2022-12-31T14:15:11.756Z,99885.50
2022-12-31T14:18:01.014Z,99932.16
2022-12-31T14:20:39.781Z,99924.44
2022-12-31T14:23:45.535Z,99989.91
2022-12-31T14:26:21.545Z,99965.34
2022-12-31T14:28:52.253Z,99969.34
2022-12-31T14:31:38.126Z,99979.06
2022-12-31T14:34:22.241Z,99977.13
2022-12-31T14:37:11.985Z,99971.44
2022-12-31T14:39:57.123Z,99953.41
2022-12-31T14:42:31.855Z,99960.19
2022-12-31T14:45:25.183Z,99957.69
2022-12-31T14:48:26.493Z,99986.19
2022-12-31T14:50:54.057Z,99999.47
2022-12-31T14:53:27.282Z,99995.91
2022-12-31T14:56:06.636Z,99986.63
2022-12-31T14:58:43.468Z,99985.66
2022-12-31T15:01:42.729Z,99984.53
2022-12-31T15:04:47.698Z,99982.56
2022-12-31T15:08:05.129Z,99979.19
2022-12-31T15:11:10.634Z,99981.44
2022-12-31T15:13:57.161Z,99996.09
2022-12-31T15:16:52.321Z,100003.13
2022-12-31T15:19:19.126Z,100000.31
2022-12-31T15:21:54.962Z,99976.66
2022-12-31T15:24:24.175Z,99971.84
2022-12-31T15:27:06.682Z,99978.47
2022-12-31T15:29:44.793Z,100002.00
2022-12-31T15:32:19.860Z,99986.50
2022-12-31T15:34:48.053Z,99981.28
2022-12-31T15:42:41.377Z,99991.59
2022-12-31T15:46:38.584Z,99988.34
2022-12-31T15:53:11.263Z,99999.47
2022-12-31T15:55:51.391Z,99989.56
2022-12-31T16:02:09.010Z,99983.13
2022-12-31T16:05:31.157Z,99979.63
2022-12-31T16:12:39.461Z,99993.53
2022-12-31T16:25:02.670Z,100012.81
2022-12-31T16:27:40.481Z,100022.13
2022-12-31T16:30:24.787Z,100021.56
2022-12-31T16:33:41.195Z,100009.03
2022-12-31T16:37:43.506Z,100011.44
2022-12-31T16:41:03.678Z,100022.56
2022-12-31T16:43:41.766Z,100024.50
2022-12-31T16:46:16.133Z,100031.00
2022-12-31T16:48:48.679Z,100022.41
2022-12-31T16:51:23.080Z,100022.53
2022-12-31T16:54:18.666Z,100040.59
2022-12-31T16:57:40.221Z,100027.63
2022-12-31T17:02:22.475Z,100037.47
2022-12-31T17:07:33.757Z,100004.47
2022-12-31T17:14:35.212Z,100047.00
2022-12-31T17:17:28.693Z,100010.50
2022-12-31T17:50:31.686Z,100031.88
2022-12-31T17:53:12.485Z,100053.03
2022-12-31T17:55:39.264Z,100057.69
2022-12-31T17:58:06.709Z,100031.31
2022-12-31T18:00:34.282Z,100058.69
2022-12-31T18:03:01.043Z,100048.38
2022-12-31T18:05:27.722Z,100056.22
2022-12-31T18:07:54.803Z,100036.53
2022-12-31T18:10:23.194Z,100059.38
2022-12-31T18:12:56.184Z,100054.03
2022-12-31T18:15:24.536Z,100038.75
2022-12-31T18:17:51.373Z,100033.41
2022-12-31T18:20:18.675Z,100063.81
2022-12-31T18:22:45.684Z,100047.63
2022-12-31T18:25:23.717Z,100066.69
2022-12-31T18:27:51.698Z,100043.66
2022-12-31T18:30:19.007Z,100033.53
2022-12-31T18:32:46.789Z,100082.59
2022-12-31T18:36:07.004Z,100074.84
2022-12-31T18:38:16.971Z,100074.03
2022-12-31T18:40:50.102Z,100094.59
2022-12-31T18:43:18.409Z,100059.78
2022-12-31T18:45:46.418Z,100068.66
2022-12-31T18:48:13.513Z,100070.47
2022-12-31T18:50:43.044Z,100080.63
2022-12-31T18:53:21.609Z,100059.38
2022-12-31T18:55:54.426Z,100064.03
2022-12-31T18:58:21.793Z,100056.81
2022-12-31T19:00:49.275Z,100042.41
2022-12-31T19:03:23.935Z,100041.88
2022-12-31T19:05:52.059Z,100057.56
2022-12-31T19:08:22.995Z,100059.66
2022-12-31T19:10:51.206Z,100045.84
2022-12-31T19:13:19.690Z,100057.13
2022-12-31T19:15:47.273Z,100049.53
2022-12-31T19:18:14.070Z,100052.59
2022-12-31T19:20:41.237Z,100057.44
2022-12-31T19:23:18.038Z,100059.69
2022-12-31T19:25:45.898Z,100082.81
2022-12-31T19:28:24.238Z,100053.78
2022-12-31T19:30:51.567Z,100051.50
2022-12-31T19:33:19.049Z,100046.72
2022-12-31T19:35:46.445Z,100049.41
2022-12-31T19:38:23.264Z,100076.03
2022-12-31T19:40:51.027Z,100100.13
2022-12-31T19:43:19.849Z,100047.59
2022-12-31T19:45:46.822Z,100067.88
2022-12-31T19:48:17.316Z,100039.81
2022-12-31T19:50:49.359Z,100049.84
2022-12-31T19:53:22.021Z,100068.44
2022-12-31T19:55:49.251Z,100054.94
2022-12-31T19:58:21.539Z,100053.22
2022-12-31T20:00:55.598Z,100034.03
2022-12-31T20:03:25.530Z,100042.22
2022-12-31T20:06:01.113Z,100060.13
2022-12-31T20:08:27.905Z,100071.97
2022-12-31T20:10:58.863Z,100070.13
2022-12-31T20:13:27.168Z,100070.13
2022-12-31T20:15:54.368Z,100062.25
2022-12-31T20:18:23.071Z,100063.38
2022-12-31T20:20:55.553Z,100079.03
2022-12-31T20:23:22.942Z,100069.28
2022-12-31T20:25:59.803Z,100057.75
2022-12-31T20:28:27.147Z,100067.19
2022-12-31T20:30:53.954Z,100068.44
2022-12-31T20:33:20.833Z,100048.16
2022-12-31T20:35:47.647Z,100076.88
2022-12-31T20:38:14.949Z,100075.75
2022-12-31T20:40:46.724Z,100072.50
2022-12-31T20:43:14.380Z,100074.50
2022-12-31T20:45:41.757Z,100064.19
2022-12-31T20:48:08.872Z,100101.97
2022-12-31T20:50:37.924Z,100063.34
2022-12-31T20:53:04.866Z,100060.81
2022-12-31T20:55:34.975Z,100045.31
2022-12-31T20:58:01.891Z,100059.69
2022-12-31T21:00:28.652Z,100063.19
2022-12-31T21:03:04.100Z,100066.44
2022-12-31T21:05:35.269Z,100058.41
2022-12-31T21:08:02.174Z,100061.34
2022-12-31T21:10:28.943Z,100063.63
2022-12-31T21:12:55.684Z,100048.53
2022-12-31T21:15:24.923Z,100056.56
2022-12-31T21:17:51.823Z,100058.25
2022-12-31T21:20:18.549Z,100068.28
2022-12-31T21:22:45.370Z,100097.44
2022-12-31T21:25:12.190Z,100054.91
2022-12-31T21:27:39.333Z,100098.03
2022-12-31T21:30:21.835Z,100070.22
2022-12-31T21:32:48.696Z,100090.09
2022-12-31T21:35:41.650Z,100059.38
2022-12-31T21:38:04.021Z,100091.22
2022-12-31T21:40:31.468Z,100062.03
2022-12-31T21:42:58.597Z,100060.47
2022-12-31T21:45:25.379Z,100069.09
2022-12-31T21:48:10.915Z,100089.53
2022-12-31T21:50:37.708Z,100076.97
2022-12-31T21:53:04.498Z,100084.59
2022-12-31T21:55:50.071Z,100080.94
2022-12-31T21:58:26.422Z,100078.41
2022-12-31T22:01:13.395Z,100091.38
2022-12-31T22:03:40.744Z,100106.59
2022-12-31T22:06:12.654Z,100101.66
2022-12-31T22:08:40.752Z,100065.44
2022-12-31T22:11:08.121Z,100088.25
2022-12-31T22:13:37.022Z,100078.25
2022-12-31T22:16:06.073Z,100093.47
2022-12-31T22:18:35.630Z,100097.16
2022-12-31T22:21:04.062Z,100112.94
2022-12-31T22:23:32.040Z,100104.31
2022-12-31T22:25:59.089Z,100127.03
2022-12-31T22:28:41.385Z,100121.38
2022-12-31T22:31:10.177Z,100142.53
2022-12-31T22:33:37.131Z,100128.44
2022-12-31T22:36:11.044Z,100153.94
2022-12-31T22:38:37.774Z,100136.59
2022-12-31T22:41:11.114Z,100123.50
2022-12-31T22:43:40.663Z,100136.47
2022-12-31T22:46:16.850Z,100128.72
2022-12-31T22:48:43.614Z,100139.44
2022-12-31T22:51:11.654Z,100159.75
2022-12-31T22:53:39.981Z,100087.56
2022-12-31T22:56:08.591Z,100115.91
2022-12-31T22:58:35.438Z,100134.91
2022-12-31T23:01:15.525Z,100136.91
2022-12-31T23:03:42.469Z,100155.81
2022-12-31T23:06:09.235Z,100151.13
2022-12-31T23:08:35.997Z,100138.56
2022-12-31T23:11:06.219Z,100136.19
2022-12-31T23:14:00.168Z,100144.53
2022-12-31T23:16:48.464Z,100173.41
2022-12-31T23:19:34.817Z,100126.88
2022-12-31T23:22:20.158Z,100142.41
2022-12-31T23:24:46.978Z,100159.47
2022-12-31T23:27:13.833Z,100153.25
2022-12-31T23:29:46.516Z,100144.22
2022-12-31T23:32:15.680Z,100142.41
2022-12-31T23:34:43.356Z,100135.63
2022-12-31T23:37:10.495Z,100158.75
2022-12-31T23:39:37.311Z,100157.34
2022-12-31T23:42:04.535Z,100146.50
2022-12-31T23:44:31.290Z,100143.38
2022-12-31T23:46:58.272Z,100136.38
2022-12-31T23:49:25.869Z,100176.25
2022-12-31T23:51:52.751Z,100163.44
2022-12-31T23:54:19.546Z,100161.88
2022-12-31T23:56:46.278Z,100156.78
2022-12-31T23:59:13.296Z,100169.75
